Time;durP1;ratioP1;P1;durP2;ratioP2;P2;SDS_P1;SDS_P2;PMS_P1;PMS_P2;Temp;Humidity;BMP_temperature;BMP_pressure;BME280_temperature;BME280_humidity;BME280_pressure;Samples;Min_cycle;Max_cycle;Signal;HPM_P1;HPM_P2
2022/10/28 00:02:18;;;;;;;;;;;11.00;99.90;;;;;;5048672;28;20296;-73
2022/10/28 00:04:50;;;;;;;;;;;10.90;99.90;;;;;;5070453;28;19932;-72
2022/10/28 00:07:21;;;;;;;;;;;10.90;99.90;;;;;;5069765;28;19929;-74
2022/10/28 00:09:53;;;;;;;;;;;10.90;99.90;;;;;;5070126;28;19974;-76
2022/10/28 00:12:24;;;;;;;;;;;10.90;99.90;;;;;;5067071;28;19929;-74
2022/10/28 00:14:56;;;;;;;;;;;10.90;99.90;;;;;;5049515;28;19924;-73
2022/10/28 00:17:27;;;;;;;;;;;10.80;99.90;;;;;;5080845;28;19924;-74
2022/10/28 00:19:59;;;;;;;;;;;10.80;99.90;;;;;;5069021;28;19928;-74
2022/10/28 00:22:30;;;;;;;;;;;10.80;99.90;;;;;;5069942;28;19925;-72
2022/10/28 00:25:02;;;;;;;;;;;10.80;99.90;;;;;;5069963;28;19925;-72
2022/10/28 00:27:34;;;;;;;;;;;10.80;99.90;;;;;;5068437;28;19924;-74
2022/10/28 00:30:06;;;;;;;;;;;10.70;99.90;;;;;;5071157;28;19925;-74
2022/10/28 00:32:38;;;;;;;;;;;10.70;99.90;;;;;;5069660;28;19933;-72
2022/10/28 00:35:09;;;;;;;;;;;10.70;99.90;;;;;;5069732;28;19924;-73
2022/10/28 00:37:36;;;;;;;;;;;10.70;99.90;;;;;;5069132;28;20018;-73
2022/10/28 00:40:07;;;;;;;;;;;10.70;99.90;;;;;;5053749;28;20383;-73
2022/10/28 00:42:39;;;;;;;;;;;10.70;99.90;;;;;;5064436;28;19931;-73
2022/10/28 00:45:11;;;;;;;;;;;10.60;99.90;;;;;;5069639;28;19928;-74
2022/10/28 00:47:53;;;;;;;;;;;10.60;99.90;;;;;;5077927;28;19986;-73
2022/10/28 00:50:28;;;;;;;;;;;10.60;99.90;;;;;;5053735;28;20294;-73
2022/10/28 00:53:09;;;;;;;;;;;10.60;99.90;;;;;;5065290;28;19928;-74
2022/10/28 00:55:41;;;;;;;;;;;10.60;99.90;;;;;;5069438;28;19932;-73
2022/10/28 00:58:13;;;;;;;;;;;10.60;99.90;;;;;;5069749;28;19928;-72
2022/10/28 01:00:45;;;;;;;;;;;10.60;99.90;;;;;;5049328;28;20345;-73
2022/10/28 01:03:17;;;;;;;;;;;10.60;99.90;;;;;;5068818;28;19928;-74
2022/10/28 01:05:49;;;;;;;;;;;10.50;99.90;;;;;;5051276;28;19924;-74
2022/10/28 01:08:21;;;;;;;;;;;10.50;99.90;;;;;;5068384;28;19929;-74
2022/10/28 01:10:56;;;;;;;;;;;10.50;99.90;;;;;;5068615;28;19932;-73
2022/10/28 01:13:29;;;;;;;;;;;10.50;99.90;;;;;;5069391;28;19928;-73
2022/10/28 01:16:00;;;;;;;;;;;10.50;99.90;;;;;;5058242;28;19936;-74
2022/10/28 01:18:44;;;;;;;;;;;10.50;99.90;;;;;;5068627;28;20045;-72
2022/10/28 01:21:30;;;;;;;;;;;10.50;99.90;;;;;;5058091;28;20725;-74
2022/10/28 01:24:05;;;;;;;;;;;10.50;99.90;;;;;;5068593;28;19925;-74
2022/10/28 01:26:34;;;;;;;;;;;10.50;99.90;;;;;;5068097;28;19932;-74
2022/10/28 01:29:24;;;;;;;;;;;10.40;99.90;;;;;;5065536;28;20340;-73
2022/10/28 01:32:10;;;;;;;;;;;10.40;99.90;;;;;;5073297;28;19931;-74
2022/10/28 01:34:51;;;;;;;;;;;10.40;99.90;;;;;;5069491;28;20402;-74
2022/10/28 01:37:23;;;;;;;;;;;10.40;99.90;;;;;;5077835;28;19925;-73
2022/10/28 01:40:03;;;;;;;;;;;10.40;99.90;;;;;;5052364;28;19925;-74
2022/10/28 01:42:50;;;;;;;;;;;10.40;99.90;;;;;;5067485;28;20449;-74
2022/10/28 01:45:20;;;;;;;;;;;10.30;99.90;;;;;;5064283;28;19925;-73
2022/10/28 01:47:50;;;;;;;;;;;10.40;99.90;;;;;;5067967;28;19928;-73
2022/10/28 01:50:42;;;;;;;;;;;10.40;99.90;;;;;;5068075;28;19924;-74
2022/10/28 01:53:17;;;;;;;;;;;10.40;99.90;;;;;;5067485;28;19928;-74
2022/10/28 01:55:50;;;;;;;;;;;10.40;99.90;;;;;;5067145;28;19924;-74
2022/10/28 01:58:24;;;;;;;;;;;10.40;99.90;;;;;;5058848;28;20005;-74
2022/10/28 02:00:57;;;;;;;;;;;10.40;99.90;;;;;;5067539;28;19928;-74
2022/10/28 02:03:29;;;;;;;;;;;10.40;99.90;;;;;;5068263;28;19932;-73
2022/10/28 02:06:02;;;;;;;;;;;10.40;99.90;;;;;;5068961;28;19982;-73
2022/10/28 02:08:40;;;;;;;;;;;10.40;99.90;;;;;;5080959;28;19929;-74
2022/10/28 02:11:13;;;;;;;;;;;10.40;99.90;;;;;;5066875;28;19925;-74
2022/10/28 02:14:00;;;;;;;;;;;10.40;99.90;;;;;;5068289;28;19943;-74
2022/10/28 02:16:36;;;;;;;;;;;10.30;99.90;;;;;;5068916;28;20367;-75
2022/10/28 02:19:19;;;;;;;;;;;10.30;99.90;;;;;;5071413;28;19925;-75
2022/10/28 02:22:14;;;;;;;;;;;10.30;99.90;;;;;;5056003;28;20399;-75
2022/10/28 02:25:04;;;;;;;;;;;10.30;99.90;;;;;;5070807;28;19984;-72
2022/10/28 02:27:56;;;;;;;;;;;10.30;99.90;;;;;;5070897;28;20502;-73
2022/10/28 02:30:32;;;;;;;;;;;10.20;99.90;;;;;;5047498;28;19981;-74
2022/10/28 02:33:09;;;;;;;;;;;10.20;99.90;;;;;;5051313;28;19928;-75
2022/10/28 02:35:47;;;;;;;;;;;10.20;99.90;;;;;;5069444;28;19989;-75
2022/10/28 02:38:19;;;;;;;;;;;10.20;99.90;;;;;;5070923;28;19931;-73
2022/10/28 02:40:50;;;;;;;;;;;10.20;99.90;;;;;;5084929;28;19967;-74
2022/10/28 02:43:22;;;;;;;;;;;10.10;99.90;;;;;;5069164;28;19936;-75
2022/10/28 02:45:51;;;;;;;;;;;10.10;99.90;;;;;;5070415;28;19978;-76
2022/10/28 02:48:20;;;;;;;;;;;10.10;99.90;;;;;;5054212;28;20367;-74
2022/10/28 02:50:52;;;;;;;;;;;10.10;99.90;;;;;;5070897;28;19978;-75
2022/10/28 02:53:21;;;;;;;;;;;10.10;99.90;;;;;;5069180;28;19982;-75
2022/10/28 02:55:49;;;;;;;;;;;10.10;99.90;;;;;;5058197;28;20341;-72
2022/10/28 02:58:16;;;;;;;;;;;10.10;99.90;;;;;;5062080;28;19985;-75
2022/10/28 03:00:43;;;;;;;;;;;10.00;99.90;;;;;;5068513;28;19928;-76
2022/10/28 03:03:15;;;;;;;;;;;10.00;99.90;;;;;;5081092;28;19929;-74
2022/10/28 03:05:47;;;;;;;;;;;10.00;99.90;;;;;;5070486;28;19928;-72
2022/10/28 03:08:13;;;;;;;;;;;10.00;99.90;;;;;;5071342;28;19932;-71
2022/10/28 03:10:40;;;;;;;;;;;10.00;99.90;;;;;;5070591;28;20341;-74
2022/10/28 03:13:12;;;;;;;;;;;10.00;99.90;;;;;;5053381;28;19974;-74
2022/10/28 03:15:38;;;;;;;;;;;9.90;99.90;;;;;;5069910;28;19978;-76
2022/10/28 03:18:10;;;;;;;;;;;9.90;99.90;;;;;;5054638;28;19978;-75
2022/10/28 03:20:36;;;;;;;;;;;9.90;99.90;;;;;;5071028;28;19929;-76
2022/10/28 03:23:03;;;;;;;;;;;9.90;99.90;;;;;;5069316;28;19924;-74
2022/10/28 03:25:34;;;;;;;;;;;9.90;99.90;;;;;;5084843;28;19986;-73
2022/10/28 03:28:01;;;;;;;;;;;9.90;99.90;;;;;;5067343;28;19960;-73
2022/10/28 03:30:33;;;;;;;;;;;9.80;99.90;;;;;;5048671;28;20348;-72
2022/10/28 03:33:04;;;;;;;;;;;9.80;99.90;;;;;;5069148;28;19929;-74
2022/10/28 03:35:36;;;;;;;;;;;9.80;99.90;;;;;;5050604;28;19932;-75
2022/10/28 03:38:07;;;;;;;;;;;9.80;99.90;;;;;;5054393;28;19932;-73
2022/10/28 03:40:39;;;;;;;;;;;9.80;99.90;;;;;;5070533;28;20423;-75
2022/10/28 03:43:10;;;;;;;;;;;9.80;99.90;;;;;;5067630;28;19925;-75
2022/10/28 03:45:42;;;;;;;;;;;9.70;99.90;;;;;;5053096;28;19928;-76
2022/10/28 03:48:14;;;;;;;;;;;9.70;99.90;;;;;;5068061;28;19978;-74
2022/10/28 03:50:45;;;;;;;;;;;9.80;99.90;;;;;;5070190;28;20390;-75
2022/10/28 03:53:17;;;;;;;;;;;9.80;99.90;;;;;;5069776;28;19954;-75
2022/10/28 03:55:56;;;;;;;;;;;9.80;99.90;;;;;;5070034;28;19935;-76
2022/10/28 03:58:27;;;;;;;;;;;9.70;99.90;;;;;;5068179;28;19930;-74
2022/10/28 04:00:59;;;;;;;;;;;9.60;99.90;;;;;;5053087;28;19987;-74
2022/10/28 04:03:26;;;;;;;;;;;9.50;99.90;;;;;;5063957;28;19929;-76
2022/10/28 04:05:52;;;;;;;;;;;9.30;99.90;;;;;;5051242;28;19962;-74
2022/10/28 04:08:24;;;;;;;;;;;9.20;99.90;;;;;;5066116;28;19924;-77
2022/10/28 04:10:55;;;;;;;;;;;9.20;99.90;;;;;;5066355;28;19932;-73
2022/10/28 04:13:27;;;;;;;;;;;9.10;99.90;;;;;;5051035;28;19928;-77
2022/10/28 04:16:00;;;;;;;;;;;9.10;99.90;;;;;;5063519;28;20361;-76
2022/10/28 04:18:34;;;;;;;;;;;9.00;99.90;;;;;;5069937;28;19928;-73
2022/10/28 04:21:05;;;;;;;;;;;9.00;99.90;;;;;;5066388;28;19924;-74
2022/10/28 04:23:37;;;;;;;;;;;9.10;99.90;;;;;;5069282;28;19990;-76
2022/10/28 04:26:08;;;;;;;;;;;9.10;99.90;;;;;;5066619;28;19925;-74
2022/10/28 04:28:35;;;;;;;;;;;9.10;99.90;;;;;;5062831;28;19928;-75
2022/10/28 04:31:08;;;;;;;;;;;9.10;99.90;;;;;;5064039;28;19924;-75
2022/10/28 04:33:40;;;;;;;;;;;9.10;99.90;;;;;;5050850;28;19959;-76
2022/10/28 04:36:07;;;;;;;;;;;9.10;99.90;;;;;;5058021;28;20576;-74
2022/10/28 04:38:38;;;;;;;;;;;9.10;99.90;;;;;;5063132;28;19977;-74
2022/10/28 04:41:05;;;;;;;;;;;9.20;99.90;;;;;;5062328;28;19982;-76
2022/10/28 04:43:31;;;;;;;;;;;9.20;99.90;;;;;;5048517;28;19928;-73
2022/10/28 04:46:04;;;;;;;;;;;9.20;99.90;;;;;;5045925;28;19925;-76
2022/10/28 04:48:36;;;;;;;;;;;9.20;99.90;;;;;;5059032;28;20705;-74
2022/10/28 04:51:03;;;;;;;;;;;9.20;99.90;;;;;;5056451;28;19924;-73
2022/10/28 04:53:34;;;;;;;;;;;9.20;99.90;;;;;;5062551;28;19924;-74
2022/10/28 04:56:01;;;;;;;;;;;9.30;99.90;;;;;;5063140;28;19925;-74
2022/10/28 04:58:32;;;;;;;;;;;9.30;99.90;;;;;;5046040;28;19928;-76
2022/10/28 05:01:03;;;;;;;;;;;9.30;99.90;;;;;;5058117;28;19928;-74
2022/10/28 05:03:35;;;;;;;;;;;9.30;99.90;;;;;;5057705;28;20390;-73
2022/10/28 05:06:02;;;;;;;;;;;9.30;99.90;;;;;;5049454;28;19925;-75
2022/10/28 05:08:33;;;;;;;;;;;9.40;99.90;;;;;;5078456;28;20011;-75
2022/10/28 05:11:00;;;;;;;;;;;9.40;99.90;;;;;;5060784;28;19929;-72
2022/10/28 05:13:26;;;;;;;;;;;9.40;99.90;;;;;;5062337;28;19933;-75
2022/10/28 05:15:58;;;;;;;;;;;9.40;99.90;;;;;;5063955;28;19925;-73
2022/10/28 05:18:24;;;;;;;;;;;9.40;99.90;;;;;;5066621;28;20382;-75
2022/10/28 05:20:56;;;;;;;;;;;9.40;99.90;;;;;;5067412;28;20612;-74
2022/10/28 05:23:28;;;;;;;;;;;9.40;99.90;;;;;;5068482;28;19929;-74
2022/10/28 05:25:54;;;;;;;;;;;9.40;99.90;;;;;;5063456;28;19929;-73
2022/10/28 05:28:26;;;;;;;;;;;9.40;99.90;;;;;;5049403;28;19981;-77
2022/10/28 05:30:52;;;;;;;;;;;9.40;99.90;;;;;;5046902;28;19928;-74
2022/10/28 05:33:19;;;;;;;;;;;9.40;99.90;;;;;;5059482;28;19925;-77
2022/10/28 05:35:51;;;;;;;;;;;9.40;99.90;;;;;;5060819;28;19929;-75
2022/10/28 05:38:18;;;;;;;;;;;9.40;99.90;;;;;;5051552;28;20395;-73
2022/10/28 05:40:49;;;;;;;;;;;9.40;99.90;;;;;;5058216;28;19989;-73
2022/10/28 05:43:16;;;;;;;;;;;9.40;99.90;;;;;;5044335;28;19925;-72
2022/10/28 05:45:52;;;;;;;;;;;9.30;99.90;;;;;;5061188;28;19929;-71
2022/10/28 05:48:23;;;;;;;;;;;9.30;99.90;;;;;;5045169;28;19932;-73
2022/10/28 05:50:55;;;;;;;;;;;9.30;99.90;;;;;;5053480;28;19928;-74
2022/10/28 05:53:21;;;;;;;;;;;9.30;99.90;;;;;;5068506;28;19928;-73
2022/10/28 05:55:53;;;;;;;;;;;9.30;99.90;;;;;;5066996;28;20550;-74
2022/10/28 05:58:24;;;;;;;;;;;9.20;99.90;;;;;;5066646;28;19928;-73
2022/10/28 06:00:56;;;;;;;;;;;9.20;99.90;;;;;;5064493;28;19925;-72
2022/10/28 06:03:28;;;;;;;;;;;9.20;99.90;;;;;;5066289;28;19933;-75
2022/10/28 06:05:56;;;;;;;;;;;9.30;99.90;;;;;;5053650;28;20429;-75
2022/10/28 06:08:22;;;;;;;;;;;9.30;99.90;;;;;;5067106;28;19932;-74
2022/10/28 06:10:54;;;;;;;;;;;9.30;99.90;;;;;;5073379;28;19932;-75
2022/10/28 06:13:23;;;;;;;;;;;9.30;99.90;;;;;;5052870;28;20279;-74
2022/10/28 06:15:56;;;;;;;;;;;9.30;99.90;;;;;;5069090;28;19971;-74
2022/10/28 06:18:27;;;;;;;;;;;9.30;99.90;;;;;;5053561;28;19977;-74
2022/10/28 06:20:59;;;;;;;;;;;9.30;99.90;;;;;;5068747;28;20313;-72
2022/10/28 06:23:28;;;;;;;;;;;9.40;99.90;;;;;;5067876;28;19929;-74
2022/10/28 06:26:02;;;;;;;;;;;9.30;99.90;;;;;;5050336;28;20014;-74
2022/10/28 06:28:31;;;;;;;;;;;9.40;99.90;;;;;;5056577;28;19962;-72
2022/10/28 06:31:01;;;;;;;;;;;9.40;99.90;;;;;;5051501;28;19929;-73
2022/10/28 06:33:33;;;;;;;;;;;9.40;99.90;;;;;;5067520;28;19928;-75
2022/10/28 06:36:00;;;;;;;;;;;9.50;99.90;;;;;;5065520;28;19925;-73
2022/10/28 06:38:32;;;;;;;;;;;9.50;99.90;;;;;;5070369;28;20368;-74
2022/10/28 06:41:03;;;;;;;;;;;9.50;99.90;;;;;;5049531;28;19974;-74
2022/10/28 06:43:35;;;;;;;;;;;9.50;99.90;;;;;;5070726;28;20309;-72
2022/10/28 06:46:06;;;;;;;;;;;9.60;99.90;;;;;;5071943;28;19931;-73
2022/10/28 06:48:38;;;;;;;;;;;9.60;99.90;;;;;;5068206;28;19974;-74
2022/10/28 06:51:04;;;;;;;;;;;9.70;99.90;;;;;;5065232;28;19928;-72
2022/10/28 06:53:36;;;;;;;;;;;9.70;99.90;;;;;;5046998;28;19924;-74
2022/10/28 06:56:08;;;;;;;;;;;9.70;99.90;;;;;;5069462;28;19929;-74
2022/10/28 06:58:35;;;;;;;;;;;9.80;99.90;;;;;;5064849;28;19928;-72
2022/10/28 07:01:02;;;;;;;;;;;9.80;99.90;;;;;;5062130;28;19928;-73
2022/10/28 07:03:29;;;;;;;;;;;9.90;99.90;;;;;;5053781;28;19933;-74
2022/10/28 07:05:55;;;;;;;;;;;10.00;99.90;;;;;;5064272;28;20354;-73
2022/10/28 07:08:27;;;;;;;;;;;10.00;99.90;;;;;;5070108;28;19924;-74
2022/10/28 07:10:59;;;;;;;;;;;10.10;99.90;;;;;;5070890;28;19935;-75
2022/10/28 07:13:31;;;;;;;;;;;10.20;99.90;;;;;;5069916;28;19966;-76
2022/10/28 07:16:04;;;;;;;;;;;10.20;99.90;;;;;;5070508;28;19925;-74
2022/10/28 07:18:35;;;;;;;;;;;10.30;99.90;;;;;;5069680;28;19924;-75
2022/10/28 07:21:02;;;;;;;;;;;10.40;99.90;;;;;;5069514;28;19924;-75
2022/10/28 07:23:33;;;;;;;;;;;10.40;99.90;;;;;;5070416;28;19929;-75
2022/10/28 07:26:00;;;;;;;;;;;10.50;99.90;;;;;;5068462;28;19924;-75
2022/10/28 07:28:27;;;;;;;;;;;10.60;99.90;;;;;;5054274;28;19979;-76
2022/10/28 07:30:53;;;;;;;;;;;10.60;99.90;;;;;;5070751;28;19954;-75
2022/10/28 07:33:25;;;;;;;;;;;10.70;99.90;;;;;;5071165;28;19982;-76
2022/10/28 07:35:56;;;;;;;;;;;10.80;99.90;;;;;;5073232;28;19954;-75
2022/10/28 07:38:28;;;;;;;;;;;10.90;99.90;;;;;;5072342;28;19924;-75
2022/10/28 07:40:55;;;;;;;;;;;11.00;99.90;;;;;;5054608;28;19924;-75
2022/10/28 07:43:26;;;;;;;;;;;11.00;99.90;;;;;;5071131;28;19924;-74
2022/10/28 07:45:58;;;;;;;;;;;11.10;99.90;;;;;;5071968;28;19925;-74
2022/10/28 07:48:29;;;;;;;;;;;11.00;99.90;;;;;;5066889;28;19925;-74
2022/10/28 07:51:02;;;;;;;;;;;11.00;99.90;;;;;;5071225;28;19932;-75
2022/10/28 07:53:34;;;;;;;;;;;11.00;99.90;;;;;;5065639;28;19928;-75
2022/10/28 07:56:08;;;;;;;;;;;10.90;99.90;;;;;;5063958;28;19924;-76
2022/10/28 07:58:35;;;;;;;;;;;10.90;99.90;;;;;;5065477;28;19924;-74
2022/10/28 08:01:07;;;;;;;;;;;10.90;99.90;;;;;;5047211;28;20314;-74
2022/10/28 08:03:39;;;;;;;;;;;10.90;99.90;;;;;;5065623;28;19954;-75
2022/10/28 08:06:16;;;;;;;;;;;10.90;99.90;;;;;;5064042;28;19925;-75
2022/10/28 08:08:43;;;;;;;;;;;10.90;99.90;;;;;;5042612;28;20652;-75
2022/10/28 08:11:17;;;;;;;;;;;11.00;99.90;;;;;;5062078;28;19933;-74
2022/10/28 08:13:50;;;;;;;;;;;11.00;99.90;;;;;;5065947;28;19975;-75
2022/10/28 08:16:21;;;;;;;;;;;11.10;99.90;;;;;;5058184;28;19994;-76
2022/10/28 08:18:53;;;;;;;;;;;11.10;99.90;;;;;;5054118;28;19925;-75
2022/10/28 08:21:25;;;;;;;;;;;11.20;99.90;;;;;;5065529;28;19928;-75
2022/10/28 08:23:57;;;;;;;;;;;11.20;99.90;;;;;;5066141;28;19935;-75
2022/10/28 08:26:24;;;;;;;;;;;11.20;99.90;;;;;;5066034;28;19974;-76
2022/10/28 08:28:51;;;;;;;;;;;11.30;99.90;;;;;;5066227;28;19931;-76
2022/10/28 08:31:18;;;;;;;;;;;11.40;99.90;;;;;;5053957;28;19928;-75
2022/10/28 08:33:49;;;;;;;;;;;11.50;99.90;;;;;;5069841;28;19925;-75
2022/10/28 08:36:16;;;;;;;;;;;11.60;99.90;;;;;;5064122;28;20538;-75
2022/10/28 08:38:43;;;;;;;;;;;11.70;99.90;;;;;;5065016;28;19997;-74
2022/10/28 08:41:28;;;;;;;;;;;11.80;99.90;;;;;;5069470;28;20655;-74
2022/10/28 08:44:04;;;;;;;;;;;11.90;99.90;;;;;;5069460;28;19928;-75
2022/10/28 08:46:36;;;;;;;;;;;12.10;99.90;;;;;;5053408;28;20444;-75
2022/10/28 08:49:06;;;;;;;;;;;12.30;99.90;;;;;;5068896;28;20425;-74
2022/10/28 08:51:37;;;;;;;;;;;12.50;99.90;;;;;;5065402;28;20306;-76
2022/10/28 08:54:06;;;;;;;;;;;12.70;99.90;;;;;;5068259;28;20340;-74
2022/10/28 08:56:47;;;;;;;;;;;12.80;99.90;;;;;;5060611;28;19925;-76
2022/10/28 08:59:17;;;;;;;;;;;13.00;99.90;;;;;;5065295;28;19936;-74
2022/10/28 09:01:52;;;;;;;;;;;13.20;99.90;;;;;;5064144;28;19966;-75
2022/10/28 09:04:19;;;;;;;;;;;13.30;99.90;;;;;;5058450;28;19931;-74
2022/10/28 09:06:45;;;;;;;;;;;13.40;99.90;;;;;;5062019;28;20387;-74
2022/10/28 09:09:17;;;;;;;;;;;13.50;99.90;;;;;;5067280;28;19935;-75
2022/10/28 09:12:05;;;;;;;;;;;13.60;99.90;;;;;;5061553;28;19924;-74
2022/10/28 09:14:50;;;;;;;;;;;13.80;99.90;;;;;;5061221;28;19978;-76
2022/10/28 09:17:46;;;;;;;;;;;13.80;99.90;;;;;;5064407;28;19928;-74
2022/10/28 09:20:26;;;;;;;;;;;13.80;99.90;;;;;;5054880;28;19925;-74
2022/10/28 09:23:01;;;;;;;;;;;13.90;99.90;;;;;;5055315;28;19928;-74
2022/10/28 09:25:35;;;;;;;;;;;14.00;99.90;;;;;;5041591;28;19974;-73
2022/10/28 09:28:26;;;;;;;;;;;14.10;99.90;;;;;;5061818;28;19933;-73
2022/10/28 09:31:08;;;;;;;;;;;14.10;99.90;;;;;;5067938;28;19925;-74
2022/10/28 09:33:50;;;;;;;;;;;14.10;99.90;;;;;;5067872;28;20302;-73
2022/10/28 09:36:23;;;;;;;;;;;14.20;99.90;;;;;;5064976;28;21419;-72
2022/10/28 09:38:56;;;;;;;;;;;14.30;99.90;;;;;;5062627;28;19947;-75
2022/10/28 09:41:31;;;;;;;;;;;14.30;99.90;;;;;;5065397;28;19925;-73
2022/10/28 09:44:02;;;;;;;;;;;14.50;99.90;;;;;;5064915;28;19929;-72
2022/10/28 09:46:35;;;;;;;;;;;14.60;99.90;;;;;;5065158;28;20455;-74
2022/10/28 09:49:11;;;;;;;;;;;14.70;99.90;;;;;;5049091;28;19928;-75
2022/10/28 09:51:43;;;;;;;;;;;14.80;99.90;;;;;;5042170;28;19974;-73
2022/10/28 09:54:15;;;;;;;;;;;14.90;99.90;;;;;;5064176;28;19925;-72
2022/10/28 09:56:46;;;;;;;;;;;15.00;99.90;;;;;;5076188;28;19932;-74
2022/10/28 09:59:18;;;;;;;;;;;15.00;99.90;;;;;;5067083;28;19939;-74
2022/10/28 10:01:50;;;;;;;;;;;15.10;99.90;;;;;;5055272;28;19925;-74
2022/10/28 10:04:23;;;;;;;;;;;15.20;99.90;;;;;;5059139;28;19982;-73
2022/10/28 10:06:56;;;;;;;;;;;15.30;99.90;;;;;;5041734;28;19951;-73
2022/10/28 10:09:29;;;;;;;;;;;15.50;99.90;;;;;;5053306;28;19974;-73
2022/10/28 10:11:59;;;;;;;;;;;15.50;99.90;;;;;;5066247;28;19973;-76
2022/10/28 10:14:39;;;;;;;;;;;15.60;99.90;;;;;;5065204;28;19990;-75
2022/10/28 10:17:15;;;;;;;;;;;15.70;99.90;;;;;;5068560;28;20361;-74
2022/10/28 10:19:57;;;;;;;;;;;15.70;99.90;;;;;;5069181;28;19924;-73
2022/10/28 10:22:29;;;;;;;;;;;15.80;99.90;;;;;;5062741;28;20329;-73
2022/10/28 10:25:01;;;;;;;;;;;15.80;99.90;;;;;;5051378;28;19971;-74
2022/10/28 10:27:32;;;;;;;;;;;15.90;99.90;;;;;;5064869;28;19928;-76
2022/10/28 10:30:12;;;;;;;;;;;16.00;99.90;;;;;;5065639;28;19928;-74
2022/10/28 10:32:45;;;;;;;;;;;16.00;99.90;;;;;;5070229;28;20425;-73
2022/10/28 10:35:12;;;;;;;;;;;16.20;99.90;;;;;;5069307;28;19990;-75
2022/10/28 10:37:44;;;;;;;;;;;16.20;99.90;;;;;;5065755;28;20980;-74
2022/10/28 10:40:17;;;;;;;;;;;16.30;99.90;;;;;;5058238;28;19978;-76
2022/10/28 10:42:48;;;;;;;;;;;16.40;99.90;;;;;;5073456;28;19925;-73
2022/10/28 10:45:22;;;;;;;;;;;16.40;99.90;;;;;;5063751;28;19932;-73
2022/10/28 10:48:05;;;;;;;;;;;16.50;99.90;;;;;;5054959;28;19979;-74
2022/10/28 10:50:37;;;;;;;;;;;16.50;99.90;;;;;;5066377;28;19924;-75
2022/10/28 10:53:17;;;;;;;;;;;16.60;99.90;;;;;;5074167;28;19931;-75
2022/10/28 10:55:47;;;;;;;;;;;16.70;99.90;;;;;;5071871;28;19939;-75
2022/10/28 10:58:20;;;;;;;;;;;16.80;99.90;;;;;;5053631;28;19935;-76
2022/10/28 11:00:53;;;;;;;;;;;16.90;99.90;;;;;;5067220;28;19932;-73
2022/10/28 11:03:26;;;;;;;;;;;17.00;99.90;;;;;;5070134;28;19924;-76
2022/10/28 11:05:59;;;;;;;;;;;17.10;99.90;;;;;;5064620;28;19925;-74
2022/10/28 11:08:33;;;;;;;;;;;17.10;99.90;;;;;;5073931;28;19924;-75
2022/10/28 11:11:07;;;;;;;;;;;17.20;99.90;;;;;;5037307;28;20379;-74
2022/10/28 11:13:39;;;;;;;;;;;17.20;99.90;;;;;;5051055;28;19924;-76
2022/10/28 11:16:17;;;;;;;;;;;17.30;99.90;;;;;;5064287;28;19924;-74
2022/10/28 11:18:50;;;;;;;;;;;17.40;99.90;;;;;;5057749;28;19925;-74
2022/10/28 11:21:22;;;;;;;;;;;17.40;99.90;;;;;;5066992;28;20303;-73
2022/10/28 11:23:56;;;;;;;;;;;17.60;99.90;;;;;;5063078;28;19932;-73
2022/10/28 11:26:23;;;;;;;;;;;17.60;99.90;;;;;;5064183;28;20337;-73
2022/10/28 11:28:58;;;;;;;;;;;17.70;99.90;;;;;;5064535;28;19928;-76
2022/10/28 11:31:48;;;;;;;;;;;17.80;99.90;;;;;;5069911;28;19937;-74
2022/10/28 11:34:26;;;;;;;;;;;17.80;99.90;;;;;;5056783;28;20387;-74
2022/10/28 11:37:08;;;;;;;;;;;17.80;99.90;;;;;;5064352;28;19924;-75
2022/10/28 11:39:42;;;;;;;;;;;17.90;99.90;;;;;;5067174;28;19928;-73
2022/10/28 11:42:37;;;;;;;;;;;17.80;99.90;;;;;;5069812;28;19931;-73
2022/10/28 11:45:11;;;;;;;;;;;17.90;99.90;;;;;;5067456;28;19928;-75
2022/10/28 11:47:43;;;;;;;;;;;18.10;99.90;;;;;;5067376;28;19970;-74
2022/10/28 11:50:14;;;;;;;;;;;18.20;99.90;;;;;;5069314;28;19986;-75
2022/10/28 11:52:52;;;;;;;;;;;18.30;99.90;;;;;;5064604;28;19924;-76
2022/10/28 11:55:33;;;;;;;;;;;18.50;99.90;;;;;;5071874;28;19924;-74
2022/10/28 11:58:07;;;;;;;;;;;18.60;99.90;;;;;;5069122;28;19928;-75
2022/10/28 12:00:46;;;;;;;;;;;18.70;99.90;;;;;;5078075;28;19928;-74
2022/10/28 12:03:18;;;;;;;;;;;18.80;99.90;;;;;;5048620;28;19975;-74
2022/10/28 12:05:59;;;;;;;;;;;19.00;99.90;;;;;;5062610;28;20329;-75
2022/10/28 12:08:44;;;;;;;;;;;19.10;99.90;;;;;;5066999;28;19924;-73
2022/10/28 12:11:39;;;;;;;;;;;19.30;99.90;;;;;;5059283;28;19932;-75
2022/10/28 12:14:29;;;;;;;;;;;19.30;99.90;;;;;;5066070;28;20441;-75
2022/10/28 12:17:11;;;;;;;;;;;19.40;99.90;;;;;;5067051;28;20390;-76
2022/10/28 12:19:46;;;;;;;;;;;19.50;99.90;;;;;;5066001;28;19931;-75
2022/10/28 12:22:18;;;;;;;;;;;19.60;99.90;;;;;;5063406;28;19966;-74
2022/10/28 12:24:45;;;;;;;;;;;19.70;99.90;;;;;;5063705;28;19932;-73
2022/10/28 12:27:20;;;;;;;;;;;19.90;99.90;;;;;;5061811;28;20486;-73
2022/10/28 12:29:54;;;;;;;;;;;20.00;99.90;;;;;;5065353;28;19928;-74
2022/10/28 12:32:25;;;;;;;;;;;20.20;99.90;;;;;;5070811;28;19956;-73
2022/10/28 12:35:14;;;;;;;;;;;20.30;99.90;;;;;;5055096;28;20314;-74
2022/10/28 12:37:49;;;;;;;;;;;20.40;99.90;;;;;;5070084;28;19924;-75
2022/10/28 12:40:24;;;;;;;;;;;20.50;99.90;;;;;;5054081;28;19956;-74
2022/10/28 12:43:03;;;;;;;;;;;20.70;99.90;;;;;;5052322;28;20307;-74
2022/10/28 12:45:34;;;;;;;;;;;20.80;99.90;;;;;;5066822;28;20353;-76
2022/10/28 12:48:21;;;;;;;;;;;20.90;99.90;;;;;;5068367;28;19924;-73
2022/10/28 12:50:55;;;;;;;;;;;21.00;99.90;;;;;;5068805;28;20479;-73
2022/10/28 12:53:29;;;;;;;;;;;21.10;99.90;;;;;;5068895;28;20345;-74
2022/10/28 12:56:02;;;;;;;;;;;21.10;99.90;;;;;;5048684;28;19929;-73
2022/10/28 12:58:45;;;;;;;;;;;21.20;99.90;;;;;;5070080;28;20272;-74
2022/10/28 13:01:18;;;;;;;;;;;21.20;99.90;;;;;;5068475;28;19929;-73
2022/10/28 13:03:49;;;;;;;;;;;21.30;99.90;;;;;;5068256;28;20428;-75
2022/10/28 13:06:24;;;;;;;;;;;21.40;99.90;;;;;;5070579;28;19928;-73
2022/10/28 13:09:14;;;;;;;;;;;21.50;99.90;;;;;;5053628;28;19928;-73
2022/10/28 13:11:46;;;;;;;;;;;21.40;99.90;;;;;;5065745;28;19979;-73
2022/10/28 13:14:36;;;;;;;;;;;21.30;99.90;;;;;;5049925;28;19971;-74
2022/10/28 13:17:09;;;;;;;;;;;21.30;99.90;;;;;;5078757;28;19929;-75
2022/10/28 13:19:50;;;;;;;;;;;21.10;99.90;;;;;;5064222;28;19985;-75
2022/10/28 13:22:40;;;;;;;;;;;21.00;99.90;;;;;;5068610;28;19936;-76
2022/10/28 13:25:17;;;;;;;;;;;20.90;99.90;;;;;;5053898;28;20375;-76
2022/10/28 13:27:44;;;;;;;;;;;20.70;99.90;;;;;;5042929;28;19928;-76
2022/10/28 13:30:17;;;;;;;;;;;20.60;99.90;;;;;;5064638;28;20355;-76
2022/10/28 13:32:58;;;;;;;;;;;20.50;99.90;;;;;;5060201;28;19928;-76
2022/10/28 13:35:30;;;;;;;;;;;20.40;99.90;;;;;;5058047;28;19925;-74
2022/10/28 13:38:08;;;;;;;;;;;20.40;99.90;;;;;;5061934;28;19932;-74
2022/10/28 13:40:39;;;;;;;;;;;20.30;99.90;;;;;;5057112;28;19987;-76
2022/10/28 13:43:19;;;;;;;;;;;20.40;99.90;;;;;;5059226;28;19947;-75
2022/10/28 13:45:50;;;;;;;;;;;20.50;99.90;;;;;;5066337;28;19974;-76
2022/10/28 13:48:36;;;;;;;;;;;20.60;99.90;;;;;;5059470;28;20448;-76
2022/10/28 13:51:09;;;;;;;;;;;20.60;99.90;;;;;;5045230;28;19928;-73
2022/10/28 13:53:43;;;;;;;;;;;20.70;99.90;;;;;;5060229;28;20381;-75
2022/10/28 13:56:21;;;;;;;;;;;20.80;99.90;;;;;;5057200;28;20329;-76
2022/10/28 13:58:52;;;;;;;;;;;20.90;99.90;;;;;;5063072;28;19924;-76
2022/10/28 14:01:42;;;;;;;;;;;20.90;99.90;;;;;;5059039;28;20148;-73
2022/10/28 14:04:22;;;;;;;;;;;20.90;99.90;;;;;;5060792;28;20307;-76
2022/10/28 14:06:49;;;;;;;;;;;20.90;99.90;;;;;;5067844;28;20275;-74
2022/10/28 14:09:21;;;;;;;;;;;20.90;99.90;;;;;;5068821;28;19932;-76
2022/10/28 14:12:07;;;;;;;;;;;20.80;99.90;;;;;;5070206;28;19924;-75
2022/10/28 14:14:49;;;;;;;;;;;20.80;99.90;;;;;;5072641;28;20475;-76
2022/10/28 14:17:23;;;;;;;;;;;20.70;99.90;;;;;;5071371;28;20444;-75
2022/10/28 14:19:54;;;;;;;;;;;20.60;99.90;;;;;;5070012;28;19924;-74
2022/10/28 14:22:28;;;;;;;;;;;20.40;99.90;;;;;;5066271;28;19973;-77
2022/10/28 14:24:59;;;;;;;;;;;20.30;99.90;;;;;;5070647;28;19928;-75
2022/10/28 14:27:29;;;;;;;;;;;20.10;99.90;;;;;;5053381;28;19929;-75
2022/10/28 14:30:00;;;;;;;;;;;20.00;99.90;;;;;;5071730;28;19970;-76
2022/10/28 14:32:32;;;;;;;;;;;19.80;99.90;;;;;;5071497;28;20283;-76
2022/10/28 14:34:59;;;;;;;;;;;19.70;99.90;;;;;;5050814;28;19971;-75
2022/10/28 14:37:34;;;;;;;;;;;19.60;99.90;;;;;;5068886;28;20294;-73
2022/10/28 14:40:18;;;;;;;;;;;19.50;99.90;;;;;;5056233;28;19928;-76
2022/10/28 14:42:50;;;;;;;;;;;19.40;99.90;;;;;;5059672;28;20317;-76
2022/10/28 14:45:29;;;;;;;;;;;19.30;99.90;;;;;;5071739;28;19928;-75
2022/10/28 14:48:14;;;;;;;;;;;19.20;99.90;;;;;;5067849;28;19928;-75
2022/10/28 14:50:48;;;;;;;;;;;19.00;99.90;;;;;;5051229;28;20387;-74
2022/10/28 14:53:33;;;;;;;;;;;18.90;99.90;;;;;;5068533;28;20444;-75
2022/10/28 14:56:08;;;;;;;;;;;18.80;99.90;;;;;;5053163;28;19943;-78
2022/10/28 14:58:41;;;;;;;;;;;18.80;99.90;;;;;;5068653;28;20541;-76